createdAt,value
2022-11-22T00:02:14.970Z,17.92
2022-11-22T00:04:41.297Z,18.45
2022-11-22T00:07:07.702Z,17.62
2022-11-22T00:09:34.236Z,18.27
2022-11-22T00:12:00.575Z,18.17
2022-11-22T00:14:26.890Z,18.52
2022-11-22T00:16:53.197Z,18.62
2022-11-22T00:19:19.518Z,15.85
2022-11-22T00:21:45.823Z,17.15
2022-11-22T00:24:12.154Z,16.77
2022-11-22T00:26:38.481Z,16.77
2022-11-22T00:29:04.885Z,17.62
2022-11-22T00:31:31.228Z,17.92
2022-11-22T00:33:57.574Z,16.83
2022-11-22T00:36:23.901Z,15.32
2022-11-22T00:38:50.466Z,15.95
2022-11-22T00:41:16.778Z,14.73
2022-11-22T00:43:43.086Z,17.60
2022-11-22T00:46:09.483Z,15.68
2022-11-22T00:48:35.874Z,15.88
2022-11-22T00:51:02.216Z,14.05
2022-11-22T00:53:28.575Z,14.48
2022-11-22T00:55:54.911Z,15.65
2022-11-22T00:58:21.397Z,16.23
2022-11-22T01:00:50.974Z,16.73
2022-11-22T01:03:19.870Z,18.10
2022-11-22T01:05:46.210Z,13.82
2022-11-22T01:08:12.667Z,16.55
2022-11-22T01:10:39.045Z,14.93
2022-11-22T01:13:05.410Z,15.20
2022-11-22T01:15:31.725Z,14.65
2022-11-22T01:17:58.026Z,14.55
2022-11-22T01:20:24.391Z,14.38
2022-11-22T01:22:50.699Z,14.65
2022-11-22T01:25:17.057Z,14.55
2022-11-22T01:27:43.374Z,14.75
2022-11-22T01:30:09.758Z,14.30
2022-11-22T01:32:36.066Z,16.08
2022-11-22T01:35:02.429Z,13.82
2022-11-22T01:37:28.735Z,14.75
2022-11-22T01:39:55.085Z,14.63
2022-11-22T01:42:21.398Z,14.07
2022-11-22T01:44:47.761Z,14.07
2022-11-22T01:47:14.151Z,14.95
2022-11-22T01:49:40.611Z,15.93
2022-11-22T01:52:06.991Z,15.38
2022-11-22T01:54:33.379Z,14.50
2022-11-22T01:56:59.686Z,16.35
2022-11-22T01:59:26.060Z,14.48
2022-11-22T02:01:52.367Z,15.43
2022-11-22T02:04:18.726Z,14.40
2022-11-22T02:06:45.089Z,16.40
2022-11-22T02:09:12.334Z,17.35
2022-11-22T02:11:39.221Z,18.45
2022-11-22T02:14:05.535Z,15.98
2022-11-22T02:16:32.026Z,17.10
2022-11-22T02:18:58.347Z,14.40
2022-11-22T02:21:24.714Z,16.23
2022-11-22T02:23:51.191Z,18.55
2022-11-22T02:26:17.543Z,18.62
2022-11-22T02:28:43.870Z,15.77
2022-11-22T02:31:10.203Z,16.17
2022-11-22T02:33:38.247Z,16.67
2022-11-22T02:36:04.592Z,16.67
2022-11-22T02:38:30.917Z,16.27
2022-11-22T02:40:57.309Z,17.87
2022-11-22T02:43:23.641Z,18.45
2022-11-22T02:45:50.115Z,17.33
2022-11-22T02:48:16.447Z,16.55
2022-11-22T02:50:42.753Z,17.92
2022-11-22T02:53:09.111Z,19.83
2022-11-22T02:55:35.414Z,18.08
2022-11-22T02:58:01.740Z,19.50
2022-11-22T03:00:28.041Z,19.08
2022-11-22T03:02:54.438Z,17.93
2022-11-22T03:05:20.741Z,16.25
2022-11-22T03:07:47.171Z,18.02
2022-11-22T03:10:13.549Z,18.42
2022-11-22T03:12:39.918Z,18.15
2022-11-22T03:15:06.253Z,20.17
2022-11-22T03:17:32.595Z,22.62
2022-11-22T03:19:58.909Z,17.80
2022-11-22T03:22:25.219Z,19.45
2022-11-22T03:24:51.565Z,22.15
2022-11-22T03:27:17.999Z,17.42
2022-11-22T03:29:44.321Z,21.05
2022-11-22T03:32:10.629Z,18.40
2022-11-22T03:34:36.943Z,19.75
2022-11-22T03:37:03.371Z,18.87
2022-11-22T03:39:29.952Z,21.62
2022-11-22T03:41:56.595Z,18.85
2022-11-22T03:44:22.942Z,18.77
2022-11-22T03:46:49.295Z,18.33
2022-11-22T03:49:15.625Z,18.95
2022-11-22T03:51:41.981Z,18.90
2022-11-22T03:54:08.291Z,19.05
2022-11-22T03:56:34.623Z,17.75
2022-11-22T03:59:00.941Z,18.00
2022-11-22T04:01:27.327Z,17.48
2022-11-22T04:03:53.663Z,17.48
2022-11-22T04:06:20.039Z,15.60
2022-11-22T04:08:46.476Z,15.43
2022-11-22T04:11:12.911Z,17.23
2022-11-22T04:13:58.224Z,18.50
2022-11-22T04:16:24.654Z,14.30
2022-11-22T04:18:50.966Z,13.23
2022-11-22T04:21:35.584Z,13.43
2022-11-22T04:24:20.781Z,14.55
2022-11-22T04:26:47.368Z,15.70
2022-11-22T04:29:13.675Z,13.57
2022-11-22T04:31:58.858Z,15.57
2022-11-22T04:34:25.175Z,12.18
2022-11-22T04:36:51.543Z,13.05
2022-11-22T04:39:17.855Z,11.75
2022-11-22T04:41:44.207Z,13.93
2022-11-22T04:44:29.585Z,11.93
2022-11-22T04:46:55.917Z,13.95
2022-11-22T04:49:22.226Z,15.25
2022-11-22T04:52:07.553Z,12.85
2022-11-22T04:54:33.884Z,14.63
2022-11-22T04:57:00.205Z,13.15
2022-11-22T04:59:26.560Z,11.68
2022-11-22T05:01:52.933Z,13.90
2022-11-22T05:04:19.255Z,13.02
2022-11-22T05:06:47.551Z,15.02
2022-11-22T05:09:13.955Z,11.98
2022-11-22T05:11:40.280Z,14.75
2022-11-22T05:14:06.661Z,12.95
2022-11-22T05:16:32.988Z,14.10
2022-11-22T05:18:59.567Z,15.95
2022-11-22T05:21:28.250Z,12.48
2022-11-22T05:23:54.585Z,14.65
2022-11-22T05:26:22.508Z,14.25
2022-11-22T05:28:48.886Z,15.20
2022-11-22T05:31:15.295Z,15.95
2022-11-22T05:33:41.614Z,14.43
2022-11-22T05:36:07.954Z,14.25
2022-11-22T05:38:35.618Z,13.50
2022-11-22T05:41:02.325Z,14.45
2022-11-22T05:43:28.643Z,12.55
2022-11-22T05:45:55.039Z,13.93
2022-11-22T05:48:21.359Z,13.65
2022-11-22T05:50:47.682Z,14.90
2022-11-22T05:53:14.032Z,12.82
2022-11-22T05:55:40.347Z,13.98
2022-11-22T05:58:06.733Z,14.25
2022-11-22T06:00:33.108Z,15.57
2022-11-22T06:02:59.436Z,15.95
2022-11-22T06:05:25.762Z,14.07
2022-11-22T06:07:52.132Z,15.13
2022-11-22T06:10:19.889Z,14.23
2022-11-22T06:12:46.201Z,14.73
2022-11-22T06:15:12.517Z,15.05
2022-11-22T06:17:38.817Z,15.35
2022-11-22T06:20:06.641Z,27.37
2022-11-22T06:22:33.470Z,22.50
2022-11-22T06:24:59.965Z,29.35
2022-11-22T06:27:26.300Z,23.80
2022-11-22T06:29:52.623Z,24.40
2022-11-22T06:32:18.945Z,20.88
2022-11-22T06:34:45.254Z,16.67
2022-11-22T06:37:11.597Z,14.90
2022-11-22T06:39:37.981Z,16.17
2022-11-22T06:42:04.442Z,12.90
2022-11-22T06:44:30.747Z,16.35
2022-11-22T06:46:58.494Z,15.27
2022-11-22T06:49:24.910Z,15.63
2022-11-22T06:51:51.466Z,15.95
2022-11-22T06:54:17.807Z,14.38
2022-11-22T06:56:44.176Z,14.90
2022-11-22T06:59:10.561Z,16.98
2022-11-22T07:01:37.648Z,14.50
2022-11-22T07:04:04.108Z,14.32
2022-11-22T07:06:30.454Z,15.32
2022-11-22T07:08:56.791Z,15.25
2022-11-22T07:11:23.104Z,17.62
2022-11-22T07:13:49.501Z,17.37
2022-11-22T07:16:15.956Z,15.88
2022-11-22T07:18:42.275Z,15.32
2022-11-22T07:21:12.786Z,13.62
2022-11-22T07:23:39.911Z,16.67
2022-11-22T07:26:06.209Z,16.45
2022-11-22T07:28:35.590Z,14.18
2022-11-22T07:31:01.932Z,17.27
2022-11-22T07:33:28.313Z,15.25
2022-11-22T07:35:58.455Z,15.02
2022-11-22T07:38:24.767Z,16.52
2022-11-22T07:40:51.100Z,17.27
2022-11-22T07:43:17.419Z,14.35
2022-11-22T07:45:43.763Z,16.90
2022-11-22T07:48:14.793Z,15.00
2022-11-22T07:50:41.417Z,15.90
2022-11-22T07:53:08.379Z,15.45
2022-11-22T07:55:34.725Z,16.10
2022-11-22T07:58:01.080Z,14.15
2022-11-22T08:00:27.383Z,15.68
2022-11-22T08:02:53.726Z,16.58
2022-11-22T08:05:20.061Z,15.00
2022-11-22T08:07:46.627Z,15.80
2022-11-22T08:10:13.027Z,16.00
2022-11-22T08:12:39.391Z,17.50
2022-11-22T08:15:05.761Z,16.17
2022-11-22T08:17:32.109Z,15.68
2022-11-22T08:19:58.419Z,17.87
2022-11-22T08:22:24.750Z,17.00
2022-11-22T08:24:51.072Z,15.05
2022-11-22T08:27:17.382Z,17.45
2022-11-22T08:29:43.702Z,14.85
2022-11-22T08:32:10.012Z,14.30
2022-11-22T08:34:38.223Z,17.05
2022-11-22T08:37:05.542Z,16.05
2022-11-22T08:39:32.054Z,15.25
2022-11-22T08:41:58.454Z,15.07
2022-11-22T08:44:24.832Z,14.32
2022-11-22T08:46:51.143Z,16.05
2022-11-22T08:49:17.492Z,15.15
2022-11-22T08:51:45.435Z,15.30
2022-11-22T08:54:11.766Z,14.18
2022-11-22T08:56:38.182Z,15.57
2022-11-22T08:59:04.624Z,15.27
2022-11-22T09:01:31.096Z,13.27
2022-11-22T09:03:57.462Z,15.38
2022-11-22T09:11:56.446Z,15.35
2022-11-22T09:14:22.762Z,15.75
2022-11-22T09:16:49.113Z,14.93
2022-11-22T09:19:15.413Z,14.23
2022-11-22T09:21:41.744Z,14.55
2022-11-22T09:24:08.113Z,13.57
2022-11-22T09:26:34.470Z,15.98
2022-11-22T09:29:00.880Z,15.05
2022-11-22T09:31:27.210Z,14.00
2022-11-22T09:33:53.565Z,14.70
2022-11-22T09:36:19.944Z,13.80
2022-11-22T09:38:46.296Z,16.98
2022-11-22T09:41:12.633Z,13.57
2022-11-22T09:43:39.011Z,15.27
2022-11-22T09:46:05.332Z,15.98
2022-11-22T09:48:31.653Z,14.10
2022-11-22T09:50:57.953Z,14.52
2022-11-22T09:53:24.285Z,13.80
2022-11-22T09:55:51.133Z,11.73
2022-11-22T09:58:17.454Z,12.20
2022-11-22T10:00:49.136Z,14.90
2022-11-22T10:03:18.387Z,14.52
2022-11-22T10:05:44.695Z,11.85
2022-11-22T10:08:11.023Z,12.37
2022-11-22T10:10:37.361Z,10.98
2022-11-22T10:13:03.772Z,11.80
2022-11-22T10:15:30.289Z,11.85
2022-11-22T10:17:56.626Z,11.95
2022-11-22T10:20:22.985Z,12.57
2022-11-22T10:22:49.374Z,15.00
2022-11-22T10:25:15.817Z,14.25
2022-11-22T10:27:42.178Z,10.88
2022-11-22T10:30:08.497Z,11.63
2022-11-22T10:32:34.808Z,13.70
2022-11-22T10:35:01.109Z,11.70
2022-11-22T10:37:27.410Z,11.50
2022-11-22T10:39:53.771Z,11.88
2022-11-22T10:42:20.185Z,12.32
2022-11-22T10:44:46.499Z,11.43
2022-11-22T10:47:12.843Z,11.02
2022-11-22T10:49:39.164Z,11.77
2022-11-22T10:52:05.650Z,10.90
2022-11-22T10:54:31.950Z,12.45
2022-11-22T10:56:58.263Z,12.00
2022-11-22T10:59:28.712Z,12.30
2022-11-22T11:01:55.531Z,12.27
2022-11-22T11:04:21.896Z,11.52
2022-11-22T11:12:20.934Z,12.52
2022-11-22T11:14:47.314Z,13.93
2022-11-22T11:17:13.656Z,11.75
2022-11-22T11:19:40.218Z,13.57
2022-11-22T11:22:06.562Z,15.15
2022-11-22T11:24:33.173Z,14.57
2022-11-22T11:26:59.829Z,14.63
2022-11-22T11:29:26.139Z,13.95
2022-11-22T11:31:52.545Z,16.50
2022-11-22T11:34:18.858Z,15.50
2022-11-22T11:36:45.189Z,14.45
2022-11-22T11:39:11.502Z,14.65
2022-11-22T11:41:43.253Z,15.27
2022-11-22T11:44:09.917Z,15.70
2022-11-22T11:46:36.231Z,16.35
2022-11-22T11:49:02.546Z,14.32
2022-11-22T11:51:28.855Z,16.45
2022-11-22T11:53:55.480Z,16.05
2022-11-22T11:56:22.066Z,17.12
2022-11-22T11:58:48.672Z,14.75
2022-11-22T12:01:15.055Z,17.25
2022-11-22T12:03:41.419Z,16.90
2022-11-22T12:06:07.784Z,18.95
2022-11-22T12:08:34.105Z,17.52
2022-11-22T12:11:00.500Z,17.27
2022-11-22T12:13:27.640Z,17.65
2022-11-22T12:15:54.542Z,17.37
2022-11-22T12:18:21.010Z,17.10
2022-11-22T12:20:47.324Z,16.35
2022-11-22T12:23:13.672Z,16.15
2022-11-22T12:25:40.508Z,17.87
2022-11-22T12:28:07.069Z,17.33
2022-11-22T12:30:33.468Z,16.98
2022-11-22T12:32:59.777Z,17.77
2022-11-22T12:35:26.166Z,18.27
2022-11-22T12:37:52.490Z,15.60
2022-11-22T12:40:20.370Z,16.75
2022-11-22T12:42:46.708Z,17.20
2022-11-22T12:45:13.146Z,18.52
2022-11-22T12:47:39.936Z,16.05
2022-11-22T12:50:06.296Z,17.40
2022-11-22T12:52:32.629Z,20.33
2022-11-22T12:54:59.035Z,16.17
2022-11-22T12:57:25.350Z,17.17
2022-11-22T12:59:51.661Z,15.27
2022-11-22T13:02:18.075Z,17.67
2022-11-22T13:04:44.577Z,18.60
2022-11-22T13:07:10.980Z,18.67
2022-11-22T13:09:37.343Z,15.95
2022-11-22T13:12:03.758Z,18.60
2022-11-22T13:14:30.278Z,17.42
2022-11-22T13:16:57.266Z,19.20
2022-11-22T13:19:23.599Z,19.70
2022-11-22T13:21:49.949Z,18.80
2022-11-22T13:24:16.295Z,21.62
2022-11-22T13:26:43.166Z,16.85
2022-11-22T13:29:09.491Z,18.77
2022-11-22T13:31:40.832Z,17.62
2022-11-22T13:34:07.591Z,16.48
2022-11-22T13:36:34.016Z,16.58
2022-11-22T13:39:00.326Z,16.67
2022-11-22T13:41:26.662Z,18.65
2022-11-22T13:43:52.989Z,17.40
2022-11-22T13:46:19.331Z,18.98
2022-11-22T13:48:47.609Z,16.83
2022-11-22T13:51:14.210Z,17.65
2022-11-22T13:53:42.710Z,16.52
2022-11-22T13:56:09.088Z,17.85
2022-11-22T13:58:35.401Z,18.67
2022-11-22T14:01:01.865Z,20.55
2022-11-22T14:03:28.668Z,20.08
2022-11-22T14:05:55.020Z,18.00
2022-11-22T14:08:21.419Z,17.70
2022-11-22T14:10:47.741Z,20.67
2022-11-22T14:13:14.061Z,19.62
2022-11-22T14:15:40.379Z,19.10
2022-11-22T14:18:06.695Z,17.48
2022-11-22T14:20:33.093Z,17.67
2022-11-22T14:22:59.435Z,18.58
2022-11-22T14:25:25.748Z,17.42
2022-11-22T14:27:52.187Z,18.33
2022-11-22T14:30:18.821Z,16.65
2022-11-22T14:32:45.133Z,18.90
2022-11-22T14:35:11.499Z,17.17
2022-11-22T14:37:37.819Z,19.37
2022-11-22T14:40:04.140Z,18.05
2022-11-22T14:42:30.477Z,18.80
2022-11-22T14:44:56.802Z,19.77
2022-11-22T14:47:23.202Z,17.40
2022-11-22T14:49:49.506Z,17.92
2022-11-22T14:52:15.835Z,23.25
2022-11-22T14:54:42.201Z,20.90
2022-11-22T14:57:08.579Z,21.92
2022-11-22T14:59:34.952Z,20.70
2022-11-22T15:02:01.354Z,24.23
2022-11-22T15:09:15.080Z,26.70
2022-11-22T15:09:16.599Z,24.02
2022-11-22T15:10:00.622Z,22.15
2022-11-22T15:12:27.308Z,25.58
2022-11-22T15:14:53.615Z,25.58
2022-11-22T15:58:55.646Z,27.58
2022-11-22T16:01:22.338Z,27.60
2022-11-22T16:03:48.752Z,31.30
2022-11-22T16:06:15.139Z,28.98
2022-11-22T16:08:41.505Z,29.55
2022-11-22T16:11:07.822Z,27.60
2022-11-22T16:13:34.241Z,27.15
2022-11-22T16:16:00.734Z,29.02
2022-11-22T16:18:27.058Z,28.08
2022-11-22T16:20:57.543Z,26.90
2022-11-22T16:23:23.886Z,30.10
2022-11-22T16:25:50.268Z,26.95
2022-11-22T16:28:16.584Z,30.75
2022-11-22T16:30:45.127Z,26.75
2022-11-22T16:33:11.439Z,29.00
2022-11-22T16:35:37.753Z,25.02
2022-11-22T16:38:04.149Z,29.30
2022-11-22T16:40:30.465Z,28.77
2022-11-22T16:42:56.796Z,27.87
2022-11-22T16:45:23.174Z,28.98
2022-11-22T16:47:58.490Z,27.58
2022-11-22T16:50:38.011Z,30.08
2022-11-22T16:53:04.390Z,29.23
2022-11-22T16:55:30.706Z,28.10
2022-11-22T16:57:58.999Z,28.42
2022-11-22T17:00:25.320Z,26.37
2022-11-22T17:02:51.646Z,26.30
2022-11-22T17:05:18.353Z,27.23
2022-11-22T17:07:44.822Z,27.20
2022-11-22T17:10:11.196Z,27.25
2022-11-22T17:12:37.548Z,30.12
2022-11-22T17:15:04.976Z,25.85
2022-11-22T17:17:31.306Z,30.90
2022-11-22T17:19:58.253Z,27.48
2022-11-22T17:22:24.667Z,28.20
2022-11-22T17:24:50.973Z,33.30
2022-11-22T17:27:17.278Z,27.95
2022-11-22T17:29:51.490Z,28.45
2022-11-22T17:32:17.936Z,28.23
2022-11-22T17:34:44.629Z,28.77
2022-11-22T17:37:11.144Z,28.80
2022-11-22T17:39:37.474Z,69.75
2022-11-22T17:42:03.795Z,35.13
2022-11-22T17:44:30.135Z,32.03
2022-11-22T17:46:56.579Z,30.58
2022-11-22T17:49:22.952Z,26.52
2022-11-22T17:51:49.346Z,26.55
2022-11-22T17:54:15.897Z,25.37
2022-11-22T17:56:42.234Z,26.95
2022-11-22T17:59:08.553Z,27.62
2022-11-22T18:01:36.941Z,26.98
2022-11-22T18:04:03.416Z,24.15
2022-11-22T18:06:29.797Z,25.42
2022-11-22T18:08:59.949Z,27.80
2022-11-22T18:11:26.258Z,25.48
2022-11-22T18:13:52.577Z,25.95
2022-11-22T18:16:18.933Z,26.15
2022-11-22T18:19:00.788Z,25.58
2022-11-22T18:21:29.648Z,23.95
2022-11-22T18:23:56.273Z,26.92
2022-11-22T18:26:39.754Z,26.00
2022-11-22T18:31:53.826Z,29.27
2022-11-22T18:34:23.896Z,30.55
2022-11-22T18:37:01.937Z,26.30
2022-11-22T18:39:31.527Z,24.87
2022-11-22T18:41:58.188Z,28.42
2022-11-22T18:44:27.922Z,27.17
2022-11-22T18:46:54.230Z,25.27
2022-11-22T18:49:20.598Z,27.37
2022-11-22T18:51:46.910Z,25.95
2022-11-22T18:54:13.545Z,28.40
2022-11-22T18:56:40.839Z,27.13
2022-11-22T18:59:07.601Z,27.45
2022-11-22T19:01:34.761Z,26.58
2022-11-22T19:04:04.909Z,27.33
2022-11-22T19:06:31.311Z,24.98
2022-11-22T19:08:57.641Z,26.73
2022-11-22T19:11:24.012Z,27.15
2022-11-22T19:13:50.324Z,27.20
2022-11-22T19:16:19.910Z,27.13
2022-11-22T19:18:46.288Z,29.67
2022-11-22T19:21:12.615Z,30.02
2022-11-22T19:23:41.181Z,29.02
2022-11-22T19:26:07.524Z,27.05
2022-11-22T19:28:34.072Z,24.10
2022-11-22T19:33:32.136Z,27.40
2022-11-22T19:35:58.504Z,27.17
2022-11-22T19:38:24.851Z,26.77
2022-11-22T19:40:52.902Z,25.17
2022-11-22T19:43:19.231Z,28.00
2022-11-22T19:45:45.537Z,29.80
2022-11-22T19:48:12.205Z,27.00
2022-11-22T19:50:38.870Z,28.45
2022-11-22T19:53:05.174Z,27.37
2022-11-22T19:55:31.546Z,30.30
2022-11-22T19:57:57.884Z,31.92
2022-11-22T20:00:24.488Z,32.50
2022-11-22T20:02:50.846Z,29.73
2022-11-22T20:05:17.259Z,32.00
2022-11-22T20:07:43.636Z,34.65
2022-11-22T20:10:10.103Z,33.53
2022-11-22T20:12:36.457Z,32.55
2022-11-22T20:15:02.814Z,31.48
2022-11-22T20:17:29.365Z,32.08
2022-11-22T20:19:55.680Z,34.38
2022-11-22T20:22:23.905Z,33.15
2022-11-22T20:24:50.227Z,32.53
2022-11-22T20:27:23.211Z,31.98
2022-11-22T20:29:54.915Z,34.70
2022-11-22T20:32:21.288Z,33.40
2022-11-22T20:34:47.610Z,33.05
2022-11-22T20:37:17.897Z,32.92
2022-11-22T20:39:44.246Z,33.00
2022-11-22T20:42:33.785Z,31.58
2022-11-22T20:44:58.486Z,32.05
2022-11-22T20:47:24.864Z,35.20
2022-11-22T20:49:51.201Z,34.25
2022-11-22T20:57:21.503Z,31.98
2022-11-22T20:59:47.823Z,31.50
2022-11-22T21:02:14.157Z,34.55
2022-11-22T21:04:40.679Z,31.62
2022-11-22T21:07:07.056Z,30.62
2022-11-22T21:09:33.743Z,27.48
2022-11-22T21:12:00.087Z,30.75
2022-11-22T21:14:26.576Z,29.92
2022-11-22T21:16:52.950Z,32.45
2022-11-22T21:19:19.407Z,30.40
2022-11-22T21:21:45.715Z,29.25
2022-11-22T21:24:13.116Z,28.98
2022-11-22T21:26:39.509Z,30.62
2022-11-22T21:29:16.012Z,30.20
2022-11-22T21:31:42.954Z,28.65
2022-11-22T21:34:09.269Z,28.58
2022-11-22T21:36:35.773Z,28.85
2022-11-22T21:39:02.065Z,28.90
2022-11-22T21:41:43.818Z,28.12
2022-11-22T21:44:11.004Z,29.50
2022-11-22T21:46:37.615Z,27.90
2022-11-22T21:49:03.950Z,26.98
2022-11-22T21:51:30.467Z,28.35
2022-11-22T21:53:57.253Z,28.40
2022-11-22T21:56:23.603Z,29.23
2022-11-22T21:58:49.930Z,28.48
2022-11-22T22:01:16.247Z,30.23
2022-11-22T22:03:45.832Z,29.58
2022-11-22T22:06:12.176Z,27.70
2022-11-22T22:08:38.652Z,27.77
2022-11-22T22:11:05.578Z,29.00
2022-11-22T22:13:31.995Z,29.48
2022-11-22T22:15:58.409Z,29.87
2022-11-22T22:18:24.763Z,26.73
2022-11-22T22:20:51.081Z,28.83
2022-11-22T22:23:17.405Z,25.37
2022-11-22T22:25:46.841Z,28.25
2022-11-22T22:28:13.161Z,25.23
2022-11-22T22:30:39.717Z,28.08
2022-11-22T22:33:06.031Z,27.40
2022-11-22T22:35:32.349Z,30.52
2022-11-22T22:37:58.713Z,26.30
2022-11-22T22:40:25.035Z,30.65
2022-11-22T22:42:54.874Z,27.10
2022-11-22T22:45:21.199Z,26.62
2022-11-22T22:47:47.502Z,27.02
2022-11-22T22:50:13.914Z,26.77
2022-11-22T22:52:40.218Z,28.75
2022-11-22T22:55:06.586Z,26.33
2022-11-22T22:57:32.950Z,30.75
2022-11-22T22:59:59.257Z,27.10
2022-11-22T23:02:25.796Z,26.75
2022-11-22T23:04:52.105Z,26.50
2022-11-22T23:07:18.654Z,26.77
2022-11-22T23:09:45.457Z,23.75
2022-11-22T23:12:11.992Z,29.70
2022-11-22T23:14:39.729Z,27.83
2022-11-22T23:17:06.099Z,26.12
2022-11-22T23:19:32.591Z,27.62
2022-11-22T23:22:00.789Z,27.52
2022-11-22T23:24:27.191Z,26.75
2022-11-22T23:26:53.592Z,25.40
2022-11-22T23:29:19.921Z,29.67
2022-11-22T23:31:46.236Z,26.90
2022-11-22T23:34:15.864Z,25.70
2022-11-22T23:36:42.218Z,26.55
2022-11-22T23:39:08.534Z,28.80
2022-11-22T23:41:34.911Z,27.17
2022-11-22T23:44:01.230Z,26.37
2022-11-22T23:46:28.955Z,26.83
2022-11-22T23:48:55.300Z,29.17
2022-11-22T23:51:21.629Z,29.73
2022-11-22T23:53:48.193Z,27.20
2022-11-22T23:56:17.937Z,28.65
2022-11-22T23:58:47.856Z,30.90
